createdAt,value
2023-03-23T15:58:10.690Z,4.60
2023-03-23T15:59:10.657Z,4.40
2023-03-23T16:00:10.666Z,2.80
2023-03-23T16:01:10.669Z,4.00
2023-03-23T16:02:10.686Z,9.50
2023-03-23T16:03:10.658Z,3.80
2023-03-23T16:04:10.631Z,3.10
2023-03-23T16:05:10.599Z,4.90
2023-03-23T16:06:10.600Z,4.20
2023-03-23T16:07:10.592Z,5.20
2023-03-23T16:08:10.579Z,4.60
2023-03-23T16:09:10.571Z,6.60
2023-03-23T16:10:10.567Z,3.50
2023-03-23T16:11:10.541Z,6.00
2023-03-23T16:12:10.549Z,6.80
2023-03-23T16:13:10.524Z,2.60
2023-03-23T16:14:10.649Z,3.30
2023-03-23T16:15:10.541Z,4.80
2023-03-23T16:16:10.523Z,4.40
2023-03-23T16:17:10.491Z,1.90
2023-03-23T16:18:10.518Z,2.60
2023-03-23T16:19:10.485Z,5.70
2023-03-23T16:20:10.464Z,2.20
2023-03-23T16:21:10.439Z,3.50
2023-03-23T16:22:10.446Z,5.50
2023-03-23T16:23:10.417Z,3.50
2023-03-23T16:24:10.434Z,4.60
2023-03-23T16:25:10.403Z,3.90
2023-03-23T16:26:11.359Z,6.00
2023-03-23T16:27:10.420Z,5.10
2023-03-23T16:28:10.391Z,3.80
2023-03-23T16:29:18.829Z,6.30
2023-03-23T16:30:11.363Z,6.80
2023-03-23T16:31:10.398Z,3.10
2023-03-23T16:32:10.345Z,4.10
2023-03-23T16:33:10.331Z,5.90
2023-03-23T16:34:10.312Z,6.40
2023-03-23T16:35:10.340Z,6.20
2023-03-23T16:36:10.318Z,3.30
2023-03-23T16:37:10.282Z,4.10
2023-03-23T16:38:10.295Z,7.10
2023-03-23T16:39:10.250Z,4.50
2023-03-23T16:40:10.251Z,4.10
2023-03-23T16:41:10.228Z,9.00
2023-03-23T16:42:10.587Z,7.60
2023-03-23T16:43:10.252Z,4.80
2023-03-23T16:44:10.202Z,4.60
2023-03-23T16:45:10.190Z,6.60
2023-03-23T16:46:10.276Z,6.10
2023-03-23T16:47:10.176Z,5.00
2023-03-23T16:48:10.192Z,3.10
2023-03-23T16:49:10.144Z,5.90
2023-03-23T16:50:10.146Z,5.10
2023-03-23T16:51:10.122Z,5.20
2023-03-23T16:52:10.136Z,6.80
2023-03-23T16:53:10.103Z,6.00
2023-03-23T16:54:10.130Z,9.80
2023-03-23T16:55:10.114Z,7.90
2023-03-23T16:56:10.086Z,6.00
2023-03-23T16:57:10.120Z,11.20
2023-03-23T16:58:16.797Z,10.80
2023-03-23T16:59:11.038Z,3.50
2023-03-23T17:00:10.038Z,4.70
2023-03-23T17:01:10.033Z,5.60
2023-03-23T17:02:10.030Z,9.10
2023-03-23T17:03:10.139Z,8.70
2023-03-23T17:04:10.009Z,11.30
2023-03-23T17:05:09.978Z,6.10
2023-03-23T17:06:09.971Z,8.60
2023-03-23T17:07:09.974Z,6.60
2023-03-23T17:08:09.962Z,9.30
2023-03-23T17:09:09.935Z,5.40
2023-03-23T17:10:09.932Z,4.10
2023-03-23T17:11:09.918Z,4.90
2023-03-23T17:12:09.929Z,5.00
2023-03-23T17:13:09.904Z,5.50
2023-03-23T17:14:10.026Z,5.90
2023-03-23T17:15:09.873Z,7.80
2023-03-23T17:16:09.903Z,3.60
2023-03-23T17:17:09.871Z,3.80
2023-03-23T17:18:09.863Z,4.30
2023-03-23T17:19:09.854Z,6.10
2023-03-23T17:20:09.863Z,5.40
2023-03-23T17:21:09.814Z,5.30
2023-03-23T17:22:09.812Z,5.40
2023-03-23T17:23:09.811Z,5.30
2023-03-23T17:24:09.789Z,3.20
2023-03-23T17:25:09.773Z,6.00
2023-03-23T17:26:09.826Z,7.60
2023-03-23T17:27:09.783Z,6.50
2023-03-23T17:28:09.769Z,7.00
2023-03-23T17:29:09.807Z,6.50
2023-03-23T17:30:10.798Z,3.60
2023-03-23T17:31:09.787Z,6.20
2023-03-23T17:32:09.762Z,4.70
2023-03-23T17:33:09.809Z,5.10
2023-03-23T17:34:09.744Z,3.10
2023-03-23T17:35:09.721Z,3.80
2023-03-23T17:36:09.727Z,6.20
2023-03-23T17:37:09.657Z,5.00
2023-03-23T17:38:09.665Z,9.70
2023-03-23T17:39:09.633Z,4.80
2023-03-23T17:40:09.629Z,6.20
2023-03-23T17:41:09.665Z,5.00
2023-03-23T17:42:09.664Z,7.10
2023-03-23T17:43:09.649Z,4.70
2023-03-23T17:44:09.634Z,5.80
2023-03-23T17:45:09.875Z,5.20
2023-03-23T17:46:09.617Z,3.30
2023-03-23T17:47:09.599Z,3.60
2023-03-23T17:48:09.689Z,4.00
2023-03-23T17:49:09.595Z,4.40
2023-03-23T17:50:11.681Z,3.10
2023-03-23T17:51:09.557Z,4.30
2023-03-23T17:52:09.552Z,6.10
2023-03-23T17:53:09.552Z,5.70
2023-03-23T17:54:09.552Z,5.30
2023-03-23T17:55:09.528Z,6.30
2023-03-23T17:56:09.554Z,9.00
2023-03-23T17:57:09.550Z,6.40
2023-03-23T17:58:09.510Z,7.30
2023-03-23T17:59:09.489Z,6.00
2023-03-23T18:00:09.483Z,7.50
2023-03-23T18:01:09.529Z,5.80
2023-03-23T18:02:09.508Z,6.40
2023-03-23T18:03:09.495Z,7.50
2023-03-23T18:04:09.423Z,8.70
2023-03-23T18:05:09.494Z,4.80
2023-03-23T18:06:09.402Z,5.20
2023-03-23T18:07:09.398Z,6.60
2023-03-23T18:08:09.416Z,5.00
2023-03-23T18:09:09.388Z,7.90
2023-03-23T18:10:09.599Z,10.40
2023-03-23T18:11:09.367Z,8.80
2023-03-23T18:12:09.470Z,9.80
2023-03-23T18:13:09.347Z,6.10
2023-03-23T18:14:09.317Z,10.00
2023-03-23T18:15:09.316Z,6.90
2023-03-23T18:16:09.329Z,5.80
2023-03-23T18:17:09.304Z,8.60
2023-03-23T18:18:09.292Z,5.10
2023-03-23T18:19:09.282Z,7.00
2023-03-23T18:20:09.277Z,11.10
2023-03-23T18:21:09.253Z,9.80
2023-03-23T18:22:09.243Z,8.20
2023-03-23T18:23:09.585Z,8.70
2023-03-23T18:24:09.215Z,10.10
2023-03-23T18:25:09.238Z,5.50
2023-03-23T18:26:09.200Z,4.60
2023-03-23T18:27:09.190Z,7.20
2023-03-23T18:28:09.191Z,8.70
2023-03-23T18:29:09.175Z,7.60
2023-03-23T18:30:09.154Z,9.10
2023-03-23T18:31:09.151Z,5.50
2023-03-23T18:32:09.262Z,8.20
2023-03-23T18:33:09.326Z,8.00
2023-03-23T18:34:09.124Z,8.00
2023-03-23T18:35:09.137Z,9.40
2023-03-23T18:36:09.099Z,7.20
2023-03-23T18:37:09.096Z,7.40
2023-03-23T18:38:09.088Z,6.10
2023-03-23T18:39:09.068Z,8.60
2023-03-23T18:40:09.060Z,8.00
2023-03-23T18:41:09.058Z,7.20
2023-03-23T18:42:09.033Z,6.70
2023-03-23T18:43:09.038Z,8.90
2023-03-23T18:44:09.017Z,6.30
2023-03-23T18:45:09.021Z,4.50
2023-03-23T18:46:09.131Z,5.20
2023-03-23T18:47:08.987Z,9.90
2023-03-23T18:48:09.043Z,8.40
2023-03-23T18:49:08.975Z,14.90
2023-03-23T18:50:08.957Z,34.70
2023-03-23T18:51:08.959Z,13.10
2023-03-23T18:52:08.953Z,7.70
2023-03-23T18:53:08.946Z,8.80
2023-03-23T18:54:08.913Z,5.40
2023-03-23T18:55:08.908Z,11.40
2023-03-23T18:56:08.901Z,24.60
2023-03-23T18:57:08.931Z,15.60
2023-03-23T18:58:08.896Z,11.50
2023-03-23T18:59:08.874Z,8.20
2023-03-23T19:00:08.870Z,13.50
2023-03-23T19:01:08.906Z,9.30
2023-03-23T19:02:08.848Z,5.60
2023-03-23T19:03:08.902Z,5.80
2023-03-23T19:04:08.843Z,6.20
2023-03-23T19:05:08.814Z,7.10
2023-03-23T19:06:08.808Z,10.90
2023-03-23T19:07:08.790Z,9.30
2023-03-23T19:08:08.785Z,8.90
2023-03-23T19:09:08.775Z,11.10
2023-03-23T19:10:08.757Z,7.30
2023-03-23T19:11:08.752Z,14.10
2023-03-23T19:12:08.754Z,10.30
2023-03-23T19:13:08.741Z,9.20
2023-03-23T19:14:08.716Z,12.80
2023-03-23T19:15:08.715Z,11.10
2023-03-23T19:16:08.726Z,9.60
2023-03-23T19:17:08.687Z,8.00
2023-03-23T19:18:08.738Z,8.90
2023-03-23T19:19:08.678Z,11.20
2023-03-23T19:20:13.555Z,11.20
2023-03-23T19:21:13.963Z,13.90
2023-03-23T19:22:09.631Z,12.00
2023-03-23T19:23:08.639Z,9.70
2023-03-23T19:24:08.617Z,8.70
2023-03-23T19:25:08.612Z,11.20
2023-03-23T19:26:08.589Z,8.80
2023-03-23T19:27:08.642Z,12.80
2023-03-23T19:30:08.559Z,11.20
2023-03-23T19:31:08.563Z,6.90
2023-03-23T19:32:08.525Z,10.20
2023-03-23T19:33:08.614Z,8.40
2023-03-23T19:34:08.509Z,8.90
2023-03-23T19:35:08.509Z,9.30
2023-03-23T19:36:13.062Z,9.50
2023-03-23T19:37:11.457Z,10.40
2023-03-23T19:38:08.481Z,8.30
2023-03-23T19:39:08.473Z,9.40
2023-03-23T19:40:24.271Z,9.50
2023-03-23T19:41:09.699Z,11.30
2023-03-23T19:42:08.437Z,13.10
2023-03-23T19:43:08.457Z,10.20
2023-03-23T19:44:08.412Z,16.30
2023-03-23T19:45:08.397Z,6.50
2023-03-23T19:46:08.720Z,11.90
2023-03-23T19:47:08.402Z,9.20
2023-03-23T19:48:10.105Z,8.50
2023-03-23T19:49:08.365Z,8.80
2023-03-23T19:50:08.336Z,7.90
2023-03-23T19:51:08.341Z,8.70
2023-03-23T19:52:12.410Z,9.30
2023-03-23T19:53:08.313Z,10.20
2023-03-23T19:54:08.915Z,7.90
2023-03-23T19:55:08.304Z,10.70
2023-03-23T19:56:08.324Z,11.80
2023-03-23T19:57:08.319Z,8.90
2023-03-23T19:58:08.263Z,11.60
2023-03-23T19:59:08.275Z,7.90
2023-03-23T20:00:08.293Z,6.90
2023-03-23T20:01:08.255Z,10.80
2023-03-23T20:02:08.603Z,5.50
2023-03-23T20:03:08.903Z,11.10
2023-03-23T20:04:08.264Z,5.90
2023-03-23T20:05:08.720Z,11.20
2023-03-23T20:06:08.173Z,10.50
2023-03-23T20:07:08.182Z,11.20
2023-03-23T20:08:08.323Z,13.00
2023-03-23T20:09:08.612Z,11.80
2023-03-23T20:10:08.134Z,9.60
2023-03-23T20:11:08.126Z,12.30
2023-03-23T20:12:08.128Z,8.30
2023-03-23T20:13:08.103Z,12.40
2023-03-23T20:14:08.101Z,10.20
2023-03-23T20:15:08.091Z,9.50
2023-03-23T20:16:08.091Z,7.80
2023-03-23T20:17:08.066Z,8.00
2023-03-23T20:18:08.073Z,8.10
2023-03-23T20:19:08.060Z,8.30
2023-03-23T20:20:10.312Z,9.10
2023-03-23T20:21:08.042Z,12.30
2023-03-23T20:22:08.010Z,11.30
2023-03-23T20:23:08.044Z,8.90
2023-03-23T20:24:08.006Z,10.10
2023-03-23T20:25:08.165Z,10.20
2023-03-23T20:26:07.962Z,10.00
2023-03-23T20:27:08.218Z,7.40
2023-03-23T20:28:07.965Z,8.00
2023-03-23T20:29:08.155Z,8.20
2023-03-23T20:30:07.926Z,8.90
2023-03-23T20:31:19.477Z,10.00
2023-03-23T20:32:08.896Z,9.00
2023-03-23T20:33:07.926Z,12.60
2023-03-23T20:34:07.898Z,7.00
2023-03-23T20:35:07.876Z,8.30
2023-03-23T20:36:07.925Z,11.30
2023-03-23T20:37:07.868Z,13.00
2023-03-23T20:38:07.867Z,16.70
2023-03-23T20:39:07.854Z,15.40
2023-03-23T20:40:07.818Z,8.20
2023-03-23T20:41:07.809Z,8.90
2023-03-23T20:42:07.795Z,9.60
2023-03-23T20:43:10.300Z,14.00
2023-03-23T20:44:07.793Z,18.20
2023-03-23T20:45:07.771Z,17.70
2023-03-23T20:46:07.757Z,20.60
2023-03-23T20:47:07.750Z,19.00
2023-03-23T20:48:07.739Z,18.60
2023-03-23T20:49:07.743Z,16.60
2023-03-23T20:50:07.720Z,19.70
2023-03-23T20:51:07.711Z,18.80
2023-03-23T20:52:07.701Z,25.70
2023-03-23T20:53:07.697Z,24.80
2023-03-23T20:54:07.724Z,18.10
2023-03-23T20:55:07.671Z,26.90
2023-03-23T20:56:07.668Z,21.80
2023-03-23T20:57:07.678Z,11.50
2023-03-23T20:58:07.637Z,18.80
2023-03-23T20:59:07.682Z,17.00
2023-03-23T21:00:07.625Z,11.90
2023-03-23T21:01:07.763Z,21.90
2023-03-23T21:02:07.618Z,11.50
2023-03-23T21:03:07.592Z,14.90
2023-03-23T21:04:07.585Z,26.40
2023-03-23T21:05:07.578Z,26.10
2023-03-23T21:06:07.571Z,28.00
2023-03-23T21:07:07.546Z,14.30
2023-03-23T21:08:07.533Z,30.60
2023-03-23T21:09:07.556Z,21.90
2023-03-23T21:10:07.519Z,23.00
2023-03-23T21:11:07.528Z,36.70
2023-03-23T21:12:07.490Z,45.40
2023-03-23T21:13:07.490Z,53.20
2023-03-23T21:14:07.484Z,53.20
2023-03-23T21:15:07.464Z,35.50
2023-03-23T21:16:07.461Z,62.70
2023-03-23T21:17:07.442Z,43.90
2023-03-23T21:18:07.478Z,43.50
2023-03-23T21:19:07.439Z,59.30
2023-03-23T21:20:07.412Z,31.20
2023-03-23T21:21:09.264Z,60.50
2023-03-23T21:22:07.388Z,90.60
2023-03-23T21:23:07.378Z,61.60
2023-03-23T21:24:07.380Z,59.10
2023-03-23T21:25:07.367Z,87.60
2023-03-23T21:26:07.340Z,37.80
2023-03-23T21:27:07.341Z,47.70
2023-03-23T21:28:07.360Z,81.20
2023-03-23T21:29:07.336Z,89.00
2023-03-23T21:30:07.307Z,65.60
2023-03-23T21:31:07.328Z,127.00
2023-03-23T21:32:08.898Z,109.50
2023-03-23T21:33:08.495Z,168.30
2023-03-23T21:34:07.289Z,107.30
2023-03-23T21:35:07.262Z,66.50
2023-03-23T21:36:07.239Z,226.50
2023-03-23T21:37:07.238Z,90.10
2023-03-23T21:38:07.211Z,168.30
2023-03-23T21:39:07.226Z,152.90
2023-03-23T21:40:07.205Z,118.80
2023-03-23T21:41:07.197Z,161.90
2023-03-23T21:42:07.195Z,99.80
2023-03-23T21:43:07.194Z,91.70
2023-03-23T21:44:07.172Z,65.50
2023-03-23T21:45:07.155Z,33.20
2023-03-23T21:46:07.139Z,44.00
2023-03-23T21:47:07.125Z,16.50
2023-03-23T21:48:07.142Z,15.50
2023-03-23T21:49:07.120Z,9.10
2023-03-23T21:50:07.105Z,8.90
2023-03-23T21:51:07.100Z,8.70
2023-03-23T21:52:07.083Z,12.00
2023-03-23T21:53:07.076Z,11.30
2023-03-23T21:54:07.081Z,12.20
2023-03-23T21:55:07.049Z,7.20
2023-03-23T21:56:07.047Z,10.50
2023-03-23T21:57:07.076Z,11.40
2023-03-23T21:58:07.025Z,11.70
2023-03-23T21:59:07.028Z,9.90
2023-03-23T22:00:07.001Z,10.70
2023-03-23T22:01:07.040Z,9.70
2023-03-23T22:02:07.063Z,7.80
2023-03-23T22:03:07.007Z,8.80
2023-03-23T22:04:06.950Z,9.60
2023-03-23T22:05:06.958Z,9.00
2023-03-23T22:06:06.947Z,10.20
2023-03-23T22:07:06.940Z,11.00
2023-03-23T22:08:06.911Z,8.80
2023-03-23T22:09:06.928Z,7.50
2023-03-23T22:10:06.898Z,7.40
2023-03-23T22:11:06.884Z,9.20
2023-03-23T22:12:06.869Z,8.60
2023-03-23T22:13:06.858Z,12.40
2023-03-23T22:14:06.846Z,10.10
2023-03-23T22:15:06.876Z,8.00
2023-03-23T22:16:06.888Z,6.60
2023-03-23T22:17:06.828Z,10.10
2023-03-23T22:18:06.830Z,9.30
2023-03-23T22:19:06.827Z,9.50
2023-03-23T22:20:06.808Z,9.60
2023-03-23T22:21:06.768Z,10.30
2023-03-23T22:22:06.773Z,8.90
2023-03-23T22:23:06.746Z,11.60
2023-03-23T22:24:06.746Z,8.90
2023-03-23T22:25:06.765Z,9.60
2023-03-23T22:26:06.727Z,8.50
2023-03-23T22:27:06.716Z,10.40
2023-03-23T22:28:06.700Z,11.70
2023-03-23T22:29:06.698Z,13.80
2023-03-23T22:30:06.733Z,8.40
2023-03-23T22:31:06.681Z,8.70
2023-03-23T22:32:06.670Z,11.60
2023-03-23T22:33:06.703Z,9.80
2023-03-23T22:34:06.649Z,10.10
2023-03-23T22:35:06.647Z,11.10
2023-03-23T22:36:06.826Z,9.10
2023-03-23T22:37:06.614Z,8.20
2023-03-23T22:38:06.618Z,9.60
2023-03-23T22:39:06.599Z,10.50
2023-03-23T22:40:06.597Z,8.40
2023-03-23T22:41:06.579Z,8.40
2023-03-23T22:42:06.564Z,9.80
2023-03-23T22:43:06.554Z,9.10
2023-03-23T22:44:06.547Z,9.20
2023-03-23T22:45:06.544Z,9.10
2023-03-23T22:46:06.581Z,12.30
2023-03-23T22:47:06.513Z,10.00
2023-03-23T22:48:06.558Z,9.90
2023-03-23T22:49:06.484Z,9.50
2023-03-23T22:50:06.504Z,11.30
2023-03-23T22:51:06.469Z,9.80
2023-03-23T22:52:06.487Z,10.90
2023-03-23T22:53:06.453Z,10.70
2023-03-23T22:54:06.440Z,9.50
2023-03-23T22:55:06.449Z,7.40
2023-03-23T22:56:06.437Z,9.10
2023-03-23T22:57:06.436Z,7.40
2023-03-23T22:58:06.406Z,8.30
2023-03-23T22:59:06.385Z,7.20
2023-03-23T23:00:06.392Z,9.90
2023-03-23T23:01:06.399Z,8.50
2023-03-23T23:02:06.351Z,12.20
2023-03-23T23:03:06.356Z,12.80
2023-03-23T23:04:06.508Z,9.80
2023-03-23T23:05:06.344Z,7.20
2023-03-23T23:06:06.316Z,5.40
2023-03-23T23:07:12.770Z,7.40
2023-03-23T23:08:07.294Z,11.20
2023-03-23T23:09:06.288Z,8.00
2023-03-23T23:10:06.303Z,10.10
2023-03-23T23:11:06.262Z,6.00
2023-03-23T23:12:06.255Z,7.90
2023-03-23T23:13:06.238Z,5.50
2023-03-23T23:14:06.241Z,9.30
2023-03-23T23:15:06.236Z,9.60
2023-03-23T23:16:06.217Z,10.90
2023-03-23T23:17:06.354Z,7.30
2023-03-23T23:18:06.214Z,9.80
2023-03-23T23:19:06.183Z,5.10
2023-03-23T23:20:06.196Z,8.80
2023-03-23T23:21:06.156Z,8.30
2023-03-23T23:22:18.009Z,7.70
2023-03-23T23:23:07.154Z,6.60
2023-03-23T23:24:06.129Z,6.60
2023-03-23T23:25:06.140Z,7.30
2023-03-23T23:26:06.119Z,6.50
2023-03-23T23:27:06.094Z,5.90
2023-03-23T23:28:06.096Z,11.80
2023-03-23T23:29:06.118Z,8.80
2023-03-23T23:30:06.093Z,7.00
2023-03-23T23:31:06.070Z,7.30
2023-03-23T23:32:06.050Z,9.40
2023-03-23T23:33:06.087Z,5.90
2023-03-23T23:34:06.041Z,7.20
2023-03-23T23:35:06.024Z,7.00
2023-03-23T23:36:06.030Z,9.10
2023-03-23T23:37:05.992Z,9.30
2023-03-23T23:38:05.995Z,6.90
2023-03-23T23:39:05.973Z,6.40
2023-03-23T23:40:05.990Z,9.60
2023-03-23T23:41:05.956Z,8.50
2023-03-23T23:42:05.987Z,7.70
2023-03-23T23:43:05.930Z,7.50
2023-03-23T23:44:05.929Z,6.70
2023-03-23T23:45:05.934Z,8.70
2023-03-23T23:46:05.932Z,8.00
2023-03-23T23:47:05.895Z,8.60
2023-03-23T23:48:05.993Z,7.20
2023-03-23T23:49:05.868Z,7.20
2023-03-23T23:50:05.876Z,7.90
2023-03-23T23:51:05.859Z,9.10
2023-03-23T23:52:05.845Z,11.30
2023-03-23T23:53:05.854Z,8.90
2023-03-23T23:54:05.824Z,8.80
2023-03-23T23:55:05.820Z,9.70
2023-03-23T23:56:05.811Z,13.40
2023-03-23T23:57:05.803Z,8.10
2023-03-23T23:58:05.778Z,7.70
2023-03-23T23:59:05.768Z,7.60
